LiveATC.Net - Listen to live air traffic control over the Internet!

NOTICE

Unauthorized use prohibited. See LiveATC.net Terms of Service



ICAO: EPWA  IATA: WAW   Airport: Frederic Chopin Airport
City: Warsaw
Country: Poland   Continent: Europe
EPWA METAR Weather: EPWA 060700Z 31007KT 9999 SCT013 BKN024 17/15 Q1017 NOSIG
EPWA Flight Activity (FlightAware)
EPWA Webcam:  (Airport Webcams) 
EPWA Airport Info   (iFlightPlanner)

EPWA Approach #1
Feed Status: UP   Listeners: 5
Listen in your browser - HTML5 player (in browser, HTML5)
Click here to listen with your own player (launches your MP3 player)
EPWA Approach #1 Audio Archives
FacilityFrequency
Warsaw Approach128.805

NOTICE

Unauthorized use prohibited. See LiveATC.net Terms of Service


Airport/ARTCC Code
Frequency Search
(e.g., 124.400, 128.75)
Site-wide search
 


Browse Feeds
Top 50 Feeds
HF Oceanic Feeds
Coverage Map
Bad Weather Areas

LiveATC FAQ
Offer LiveATC feed
Contact LiveATC.net
Press Inquiries

LiveATC on iPhone
LiveATC on Android

LiveATC Mobile
(Mobile browser)

ATC Audio Archives
Interesting Recordings

LiveATC Forums


Home Page
About LiveATC.net


Terms of Use
Privacy Policy

AIRMETs/SIGMETs

FAA Airport Status
NAS Status
Arrival Demand


Server Software By:
Icecast.org
Liquidsoap